sensor_id;sensor_type;location;lat;lon;timestamp;noise_LAeq;noise_LA_min;noise_LA_max;noise_LA01;noise_LA95
75249;Laerm;63845;55.688;37.578;2022-11-11T00:00:11;67.80;64.15;79.79;;
75249;Laerm;63845;55.688;37.578;2022-11-11T00:02:36;68.09;64.49;81.32;;
75249;Laerm;63845;55.688;37.578;2022-11-11T00:05:02;67.59;64.74;72.86;;
75249;Laerm;63845;55.688;37.578;2022-11-11T00:07:28;67.87;64.98;76.02;;
75249;Laerm;63845;55.688;37.578;2022-11-11T00:09:53;67.82;64.83;71.52;;
75249;Laerm;63845;55.688;37.578;2022-11-11T00:12:19;67.93;64.53;73.83;;
75249;Laerm;63845;55.688;37.578;2022-11-11T00:14:44;67.87;64.60;73.04;;
75249;Laerm;63845;55.688;37.578;2022-11-11T00:17:12;67.52;64.13;73.02;;
75249;Laerm;63845;55.688;37.578;2022-11-11T00:19:56;67.38;64.39;77.52;;
75249;Laerm;63845;55.688;37.578;2022-11-11T00:22:40;67.59;64.58;72.43;;
75249;Laerm;63845;55.688;37.578;2022-11-11T00:25:24;67.61;63.58;75.80;;
75249;Laerm;63845;55.688;37.578;2022-11-11T00:27:50;67.91;65.08;73.06;;
75249;Laerm;63845;55.688;37.578;2022-11-11T00:30:16;67.90;64.36;82.21;;
75249;Laerm;63845;55.688;37.578;2022-11-11T00:32:41;70.22;64.68;96.10;;
75249;Laerm;63845;55.688;37.578;2022-11-11T00:35:07;67.56;64.52;75.17;;
75249;Laerm;63845;55.688;37.578;2022-11-11T00:37:51;67.64;64.40;81.07;;
75249;Laerm;63845;55.688;37.578;2022-11-11T00:40:16;67.48;64.72;71.52;;
75249;Laerm;63845;55.688;37.578;2022-11-11T00:42:42;67.70;64.66;75.28;;
75249;Laerm;63845;55.688;37.578;2022-11-11T00:45:08;67.87;64.70;82.87;;
75249;Laerm;63845;55.688;37.578;2022-11-11T00:47:35;66.66;62.02;73.14;;
75249;Laerm;63845;55.688;37.578;2022-11-11T00:50:27;65.53;61.92;70.19;;
75249;Laerm;63845;55.688;37.578;2022-11-11T00:53:16;65.46;60.93;78.14;;
75249;Laerm;63845;55.688;37.578;2022-11-11T00:55:42;66.38;62.47;73.64;;
75249;Laerm;63845;55.688;37.578;2022-11-11T00:58:07;66.25;62.84;74.06;;
75249;Laerm;63845;55.688;37.578;2022-11-11T01:00:33;66.04;61.73;76.08;;
75249;Laerm;63845;55.688;37.578;2022-11-11T01:02:59;66.02;62.57;75.25;;
75249;Laerm;63845;55.688;37.578;2022-11-11T01:05:24;66.80;63.29;70.24;;
75249;Laerm;63845;55.688;37.578;2022-11-11T01:07:50;66.29;62.13;71.89;;
75249;Laerm;63845;55.688;37.578;2022-11-11T01:10:19;66.91;63.57;71.02;;
75249;Laerm;63845;55.688;37.578;2022-11-11T01:13:26;67.13;63.24;84.20;;
75249;Laerm;63845;55.688;37.578;2022-11-11T01:18:24;66.13;63.05;69.71;;
75249;Laerm;63845;55.688;37.578;2022-11-11T01:21:04;66.49;62.85;72.32;;
75249;Laerm;63845;55.688;37.578;2022-11-11T01:23:32;66.37;63.15;70.08;;
75249;Laerm;63845;55.688;37.578;2022-11-11T01:26:05;66.36;63.12;72.90;;
75249;Laerm;63845;55.688;37.578;2022-11-11T01:28:32;66.42;62.78;74.72;;
75249;Laerm;63845;55.688;37.578;2022-11-11T01:31:02;68.02;63.77;73.18;;
75249;Laerm;63845;55.688;37.578;2022-11-11T01:33:31;68.70;65.62;76.25;;
75249;Laerm;63845;55.688;37.578;2022-11-11T01:36:11;68.43;65.29;71.66;;
75249;Laerm;63845;55.688;37.578;2022-11-11T01:38:38;67.55;63.81;72.77;;
75249;Laerm;63845;55.688;37.578;2022-11-11T01:41:06;66.79;62.99;76.18;;
75249;Laerm;63845;55.688;37.578;2022-11-11T01:43:52;66.36;62.69;74.96;;
75249;Laerm;63845;55.688;37.578;2022-11-11T01:46:40;66.77;62.68;71.48;;
75249;Laerm;63845;55.688;37.578;2022-11-11T01:50:08;67.17;62.90;74.01;;
75249;Laerm;63845;55.688;37.578;2022-11-11T01:52:33;66.09;62.30;77.54;;
75249;Laerm;63845;55.688;37.578;2022-11-11T01:57:34;67.74;63.42;77.96;;
75249;Laerm;63845;55.688;37.578;2022-11-11T02:00:05;68.30;65.62;73.35;;
75249;Laerm;63845;55.688;37.578;2022-11-11T02:02:51;68.28;64.58;71.59;;
75249;Laerm;63845;55.688;37.578;2022-11-11T02:05:19;66.19;62.99;74.21;;
75249;Laerm;63845;55.688;37.578;2022-11-11T02:08:08;65.88;61.86;69.21;;
75249;Laerm;63845;55.688;37.578;2022-11-11T02:10:35;67.08;63.26;80.96;;
75249;Laerm;63845;55.688;37.578;2022-11-11T02:13:02;66.50;62.55;76.09;;
75249;Laerm;63845;55.688;37.578;2022-11-11T02:15:46;66.41;62.70;72.97;;
75249;Laerm;63845;55.688;37.578;2022-11-11T02:18:12;64.98;55.93;79.97;;
75249;Laerm;63845;55.688;37.578;2022-11-11T02:20:41;59.87;53.91;74.56;;
75249;Laerm;63845;55.688;37.578;2022-11-11T02:25:42;62.37;57.19;77.41;;
75249;Laerm;63845;55.688;37.578;2022-11-11T02:28:10;61.33;57.32;72.81;;
75249;Laerm;63845;55.688;37.578;2022-11-11T02:30:37;61.40;57.49;70.70;;
75249;Laerm;63845;55.688;37.578;2022-11-11T02:33:03;61.39;55.62;76.16;;
75249;Laerm;63845;55.688;37.578;2022-11-11T02:35:35;59.80;55.32;68.20;;
75249;Laerm;63845;55.688;37.578;2022-11-11T02:38:04;60.24;55.76;67.89;;
75249;Laerm;63845;55.688;37.578;2022-11-11T02:40:43;61.15;56.06;73.16;;
75249;Laerm;63845;55.688;37.578;2022-11-11T02:43:29;61.73;56.78;68.58;;
75249;Laerm;63845;55.688;37.578;2022-11-11T02:45:55;61.25;55.61;76.84;;
75249;Laerm;63845;55.688;37.578;2022-11-11T02:48:21;62.68;57.12;77.33;;
75249;Laerm;63845;55.688;37.578;2022-11-11T02:50:46;60.72;55.08;66.91;;
75249;Laerm;63845;55.688;37.578;2022-11-11T02:53:12;60.85;56.44;68.70;;
75249;Laerm;63845;55.688;37.578;2022-11-11T02:55:37;60.46;56.29;65.78;;
75249;Laerm;63845;55.688;37.578;2022-11-11T02:58:03;61.26;56.17;68.59;;
75249;Laerm;63845;55.688;37.578;2022-11-11T03:00:28;63.58;57.79;72.18;;
75249;Laerm;63845;55.688;37.578;2022-11-11T03:02:53;62.93;55.97;72.36;;
75249;Laerm;63845;55.688;37.578;2022-11-11T03:05:19;63.67;57.84;72.33;;
75249;Laerm;63845;55.688;37.578;2022-11-11T03:07:45;61.67;54.80;67.33;;
75249;Laerm;63845;55.688;37.578;2022-11-11T03:10:10;61.91;54.73;77.82;;
75249;Laerm;63845;55.688;37.578;2022-11-11T03:12:36;64.69;55.55;83.97;;
75249;Laerm;63845;55.688;37.578;2022-11-11T03:15:03;62.87;57.59;73.14;;
75249;Laerm;63845;55.688;37.578;2022-11-11T03:17:29;62.63;58.56;67.13;;
75249;Laerm;63845;55.688;37.578;2022-11-11T03:20:07;63.29;56.56;73.14;;
75249;Laerm;63845;55.688;37.578;2022-11-11T03:23:02;61.91;55.84;73.51;;
75249;Laerm;63845;55.688;37.578;2022-11-11T03:25:29;62.12;56.36;67.91;;
75249;Laerm;63845;55.688;37.578;2022-11-11T03:28:23;62.75;56.06;69.32;;
75249;Laerm;63845;55.688;37.578;2022-11-11T03:30:52;62.27;57.13;72.41;;
75249;Laerm;63845;55.688;37.578;2022-11-11T03:33:18;63.31;56.31;72.29;;
75249;Laerm;63845;55.688;37.578;2022-11-11T03:35:46;62.80;57.67;67.41;;
75249;Laerm;63845;55.688;37.578;2022-11-11T03:38:12;62.55;55.11;68.93;;
75249;Laerm;63845;55.688;37.578;2022-11-11T03:40:47;63.32;55.93;76.77;;
75249;Laerm;63845;55.688;37.578;2022-11-11T03:43:15;65.01;56.86;73.60;;
75249;Laerm;63845;55.688;37.578;2022-11-11T03:45:41;62.57;56.13;69.20;;
75249;Laerm;63845;55.688;37.578;2022-11-11T03:48:07;63.84;58.40;68.67;;
75249;Laerm;63845;55.688;37.578;2022-11-11T03:50:33;63.46;58.96;75.27;;
75249;Laerm;63845;55.688;37.578;2022-11-11T03:52:58;65.10;60.16;75.60;;
75249;Laerm;63845;55.688;37.578;2022-11-11T03:55:24;63.80;58.72;75.20;;
75249;Laerm;63845;55.688;37.578;2022-11-11T03:57:49;64.39;59.38;80.28;;
75249;Laerm;63845;55.688;37.578;2022-11-11T04:00:17;63.56;57.45;66.98;;
75249;Laerm;63845;55.688;37.578;2022-11-11T04:02:44;64.36;58.14;73.78;;
75249;Laerm;63845;55.688;37.578;2022-11-11T04:05:28;63.60;58.36;67.97;;
75249;Laerm;63845;55.688;37.578;2022-11-11T04:08:13;63.65;57.16;70.80;;
75249;Laerm;63845;55.688;37.578;2022-11-11T04:10:59;64.32;56.91;69.31;;
75249;Laerm;63845;55.688;37.578;2022-11-11T04:13:26;65.88;61.16;70.10;;
75249;Laerm;63845;55.688;37.578;2022-11-11T04:16:10;65.02;60.69;70.54;;
75249;Laerm;63845;55.688;37.578;2022-11-11T04:18:36;65.62;56.83;71.99;;
75249;Laerm;63845;55.688;37.578;2022-11-11T04:21:22;65.76;60.33;70.26;;
75249;Laerm;63845;55.688;37.578;2022-11-11T04:24:07;66.41;61.10;70.79;;
75249;Laerm;63845;55.688;37.578;2022-11-11T04:26:56;65.08;57.75;69.01;;
75249;Laerm;63845;55.688;37.578;2022-11-11T04:29:22;64.95;58.50;72.49;;
75249;Laerm;63845;55.688;37.578;2022-11-11T04:32:01;65.47;60.60;71.62;;
75249;Laerm;63845;55.688;37.578;2022-11-11T04:34:48;66.45;62.42;77.92;;
75249;Laerm;63845;55.688;37.578;2022-11-11T04:37:14;66.35;59.84;72.22;;
75249;Laerm;63845;55.688;37.578;2022-11-11T04:39:39;65.40;59.67;71.29;;
75249;Laerm;63845;55.688;37.578;2022-11-11T04:42:24;66.98;61.92;72.47;;
75249;Laerm;63845;55.688;37.578;2022-11-11T04:44:50;66.01;57.37;73.67;;
75249;Laerm;63845;55.688;37.578;2022-11-11T04:47:34;66.14;60.47;78.41;;
75249;Laerm;63845;55.688;37.578;2022-11-11T04:50:00;66.33;60.35;71.62;;
75249;Laerm;63845;55.688;37.578;2022-11-11T04:52:26;67.08;59.09;88.01;;
75249;Laerm;63845;55.688;37.578;2022-11-11T04:54:56;67.15;62.42;86.67;;
75249;Laerm;63845;55.688;37.578;2022-11-11T04:57:47;65.66;61.29;75.60;;
75249;Laerm;63845;55.688;37.578;2022-11-11T05:00:15;65.93;62.37;71.66;;
75249;Laerm;63845;55.688;37.578;2022-11-11T05:02:41;66.83;62.61;70.93;;
75249;Laerm;63845;55.688;37.578;2022-11-11T05:05:25;67.28;62.21;76.45;;
75249;Laerm;63845;55.688;37.578;2022-11-11T05:07:51;67.92;62.29;75.95;;
75249;Laerm;63845;55.688;37.578;2022-11-11T05:10:36;69.65;66.97;76.87;;
75249;Laerm;63845;55.688;37.578;2022-11-11T05:13:02;69.54;65.57;77.52;;
75249;Laerm;63845;55.688;37.578;2022-11-11T05:15:46;69.15;65.60;72.48;;
75249;Laerm;63845;55.688;37.578;2022-11-11T05:18:30;69.10;65.34;73.79;;
75249;Laerm;63845;55.688;37.578;2022-11-11T05:21:26;69.59;65.60;73.79;;
75249;Laerm;63845;55.688;37.578;2022-11-11T05:23:53;68.75;65.01;71.67;;
75249;Laerm;63845;55.688;37.578;2022-11-11T05:26:37;68.74;64.59;72.66;;
75249;Laerm;63845;55.688;37.578;2022-11-11T05:29:03;68.99;65.60;73.36;;
75249;Laerm;63845;55.688;37.578;2022-11-11T05:31:28;68.75;65.10;74.71;;
75249;Laerm;63845;55.688;37.578;2022-11-11T05:33:54;69.31;65.54;79.30;;
75249;Laerm;63845;55.688;37.578;2022-11-11T05:36:20;68.73;64.45;75.13;;
75249;Laerm;63845;55.688;37.578;2022-11-11T05:38:45;69.19;64.47;77.12;;
75249;Laerm;63845;55.688;37.578;2022-11-11T05:41:11;68.87;64.22;73.41;;
75249;Laerm;63845;55.688;37.578;2022-11-11T05:43:36;69.34;66.28;73.94;;
75249;Laerm;63845;55.688;37.578;2022-11-11T05:46:02;70.23;66.95;73.80;;
75249;Laerm;63845;55.688;37.578;2022-11-11T05:48:30;70.09;66.26;74.55;;
75249;Laerm;63845;55.688;37.578;2022-11-11T05:50:59;70.20;67.12;79.84;;
75249;Laerm;63845;55.688;37.578;2022-11-11T05:53:25;70.38;67.77;75.80;;
75249;Laerm;63845;55.688;37.578;2022-11-11T05:55:52;70.19;66.95;76.19;;
75249;Laerm;63845;55.688;37.578;2022-11-11T05:58:19;70.42;66.75;76.18;;
75249;Laerm;63845;55.688;37.578;2022-11-11T06:00:44;70.89;66.93;77.00;;
75249;Laerm;63845;55.688;37.578;2022-11-11T06:03:10;70.15;67.23;75.84;;
75249;Laerm;63845;55.688;37.578;2022-11-11T06:05:36;70.68;67.77;75.86;;
75249;Laerm;63845;55.688;37.578;2022-11-11T06:08:01;71.20;68.02;77.19;;
75249;Laerm;63845;55.688;37.578;2022-11-11T06:10:27;70.69;66.78;79.37;;
75249;Laerm;63845;55.688;37.578;2022-11-11T06:12:58;71.21;67.14;81.16;;
75249;Laerm;63845;55.688;37.578;2022-11-11T06:15:33;70.94;67.02;76.65;;
75249;Laerm;63845;55.688;37.578;2022-11-11T06:17:59;70.70;66.80;79.05;;
75249;Laerm;63845;55.688;37.578;2022-11-11T06:20:25;71.93;67.28;83.20;;
75249;Laerm;63845;55.688;37.578;2022-11-11T06:22:51;70.92;66.94;82.74;;
75249;Laerm;63845;55.688;37.578;2022-11-11T06:25:26;71.50;67.83;80.31;;
75249;Laerm;63845;55.688;37.578;2022-11-11T06:28:11;70.31;67.35;79.57;;
75249;Laerm;63845;55.688;37.578;2022-11-11T06:30:37;70.38;67.81;78.01;;
75249;Laerm;63845;55.688;37.578;2022-11-11T06:33:03;71.19;67.47;76.94;;
75249;Laerm;63845;55.688;37.578;2022-11-11T06:35:28;70.06;66.79;77.07;;
75249;Laerm;63845;55.688;37.578;2022-11-11T06:37:53;75.28;67.71;87.43;;
75249;Laerm;63845;55.688;37.578;2022-11-11T06:40:19;69.83;65.97;79.59;;
75249;Laerm;63845;55.688;37.578;2022-11-11T06:42:44;70.51;67.31;76.27;;
75249;Laerm;63845;55.688;37.578;2022-11-11T06:45:10;70.18;66.64;77.11;;
75249;Laerm;63845;55.688;37.578;2022-11-11T06:47:36;70.59;67.22;78.33;;
75249;Laerm;63845;55.688;37.578;2022-11-11T06:50:01;70.82;68.13;77.17;;
75249;Laerm;63845;55.688;37.578;2022-11-11T06:52:28;70.42;66.92;76.91;;
75249;Laerm;63845;55.688;37.578;2022-11-11T06:54:53;70.13;67.10;73.05;;
75249;Laerm;63845;55.688;37.578;2022-11-11T06:57:22;70.00;66.59;74.24;;
75249;Laerm;63845;55.688;37.578;2022-11-11T06:59:47;70.01;66.80;73.56;;
75249;Laerm;63845;55.688;37.578;2022-11-11T07:02:13;70.11;65.89;76.35;;
75249;Laerm;63845;55.688;37.578;2022-11-11T07:04:38;69.82;66.69;80.64;;
75249;Laerm;63845;55.688;37.578;2022-11-11T07:07:04;70.59;66.37;79.79;;
75249;Laerm;63845;55.688;37.578;2022-11-11T07:09:29;70.39;66.25;82.20;;
75249;Laerm;63845;55.688;37.578;2022-11-11T07:11:55;70.08;66.29;81.86;;
75249;Laerm;63845;55.688;37.578;2022-11-11T07:14:20;71.19;66.99;81.79;;
75249;Laerm;63845;55.688;37.578;2022-11-11T07:16:45;73.69;66.71;83.40;;
75249;Laerm;63845;55.688;37.578;2022-11-11T07:19:11;73.60;67.13;84.97;;
75249;Laerm;63845;55.688;37.578;2022-11-11T07:21:36;70.45;67.00;78.00;;
75249;Laerm;63845;55.688;37.578;2022-11-11T07:24:02;70.22;66.78;76.62;;
75249;Laerm;63845;55.688;37.578;2022-11-11T07:26:27;70.50;66.54;75.92;;
75249;Laerm;63845;55.688;37.578;2022-11-11T07:28:53;70.64;67.28;80.94;;
75249;Laerm;63845;55.688;37.578;2022-11-11T07:31:18;70.23;67.16;74.90;;
75249;Laerm;63845;55.688;37.578;2022-11-11T07:33:44;69.80;66.63;78.05;;
75249;Laerm;63845;55.688;37.578;2022-11-11T07:36:09;69.91;66.23;75.75;;
75249;Laerm;63845;55.688;37.578;2022-11-11T07:38:34;70.64;65.22;89.30;;
75249;Laerm;63845;55.688;37.578;2022-11-11T07:41:00;70.53;65.73;87.96;;
75249;Laerm;63845;55.688;37.578;2022-11-11T07:43:25;68.82;65.14;81.41;;
75249;Laerm;63845;55.688;37.578;2022-11-11T07:45:51;69.64;64.99;79.32;;
75249;Laerm;63845;55.688;37.578;2022-11-11T07:48:16;69.60;66.38;80.24;;
75249;Laerm;63845;55.688;37.578;2022-11-11T07:50:41;69.84;65.85;85.87;;
75249;Laerm;63845;55.688;37.578;2022-11-11T07:53:07;70.12;65.99;84.62;;
75249;Laerm;63845;55.688;37.578;2022-11-11T07:55:32;68.71;64.84;77.87;;
75249;Laerm;63845;55.688;37.578;2022-11-11T07:57:58;69.11;65.89;75.24;;
75249;Laerm;63845;55.688;37.578;2022-11-11T08:00:23;69.72;66.31;75.54;;
75249;Laerm;63845;55.688;37.578;2022-11-11T08:02:49;68.34;63.99;75.24;;
75249;Laerm;63845;55.688;37.578;2022-11-11T08:05:15;69.29;65.81;80.98;;
75249;Laerm;63845;55.688;37.578;2022-11-11T08:07:41;69.52;65.65;84.25;;
75249;Laerm;63845;55.688;37.578;2022-11-11T08:10:10;69.64;64.42;87.47;;
75249;Laerm;63845;55.688;37.578;2022-11-11T08:12:36;69.23;64.98;77.74;;
75249;Laerm;63845;55.688;37.578;2022-11-11T08:15:20;69.20;65.39;89.60;;
75249;Laerm;63845;55.688;37.578;2022-11-11T08:17:45;68.93;66.05;79.58;;
75249;Laerm;63845;55.688;37.578;2022-11-11T08:20:11;69.27;64.95;74.88;;
75249;Laerm;63845;55.688;37.578;2022-11-11T08:22:41;68.79;64.46;80.61;;
75249;Laerm;63845;55.688;37.578;2022-11-11T08:25:09;68.87;65.29;74.27;;
75249;Laerm;63845;55.688;37.578;2022-11-11T08:27:36;68.63;64.71;77.03;;
75249;Laerm;63845;55.688;37.578;2022-11-11T08:30:02;69.87;65.94;81.22;;
75249;Laerm;63845;55.688;37.578;2022-11-11T08:32:29;69.66;66.25;81.64;;
75249;Laerm;63845;55.688;37.578;2022-11-11T08:34:54;69.45;66.10;77.67;;
75249;Laerm;63845;55.688;37.578;2022-11-11T08:37:20;68.86;65.30;90.40;;
75249;Laerm;63845;55.688;37.578;2022-11-11T08:39:46;69.20;65.97;77.59;;
75249;Laerm;63845;55.688;37.578;2022-11-11T08:42:11;69.21;65.70;77.30;;
75249;Laerm;63845;55.688;37.578;2022-11-11T08:44:36;69.50;65.75;77.69;;
75249;Laerm;63845;55.688;37.578;2022-11-11T08:47:02;69.13;65.94;77.70;;
75249;Laerm;63845;55.688;37.578;2022-11-11T08:49:27;68.53;65.48;81.92;;
75249;Laerm;63845;55.688;37.578;2022-11-11T08:51:53;68.53;64.59;73.86;;
75249;Laerm;63845;55.688;37.578;2022-11-11T08:54:18;68.28;65.31;78.41;;
75249;Laerm;63845;55.688;37.578;2022-11-11T08:56:43;68.06;64.33;71.21;;
75249;Laerm;63845;55.688;37.578;2022-11-11T08:59:09;68.24;63.93;71.36;;
75249;Laerm;63845;55.688;37.578;2022-11-11T09:01:35;68.52;64.56;74.19;;
75249;Laerm;63845;55.688;37.578;2022-11-11T09:04:01;68.07;63.93;74.55;;
75249;Laerm;63845;55.688;37.578;2022-11-11T09:06:29;68.60;63.44;79.46;;
75249;Laerm;63845;55.688;37.578;2022-11-11T09:08:55;68.54;65.43;75.45;;
75249;Laerm;63845;55.688;37.578;2022-11-11T09:11:20;68.35;65.04;80.10;;
75249;Laerm;63845;55.688;37.578;2022-11-11T09:13:47;68.52;63.67;81.22;;
75249;Laerm;63845;55.688;37.578;2022-11-11T09:16:12;69.51;65.96;79.31;;
75249;Laerm;63845;55.688;37.578;2022-11-11T09:18:38;68.91;65.26;79.32;;
75249;Laerm;63845;55.688;37.578;2022-11-11T09:21:04;68.74;65.61;75.63;;
75249;Laerm;63845;55.688;37.578;2022-11-11T09:23:29;68.68;63.43;74.33;;
75249;Laerm;63845;55.688;37.578;2022-11-11T09:25:54;69.00;65.11;76.14;;
75249;Laerm;63845;55.688;37.578;2022-11-11T09:28:22;68.63;64.59;78.96;;
75249;Laerm;63845;55.688;37.578;2022-11-11T09:30:48;68.86;64.57;78.13;;
75249;Laerm;63845;55.688;37.578;2022-11-11T09:33:13;68.44;64.68;75.10;;
75249;Laerm;63845;55.688;37.578;2022-11-11T09:35:41;68.88;64.54;79.83;;
75249;Laerm;63845;55.688;37.578;2022-11-11T09:38:06;68.20;64.26;74.91;;
75249;Laerm;63845;55.688;37.578;2022-11-11T09:40:53;68.65;64.96;81.83;;
75249;Laerm;63845;55.688;37.578;2022-11-11T09:43:42;67.69;64.64;74.90;;
75249;Laerm;63845;55.688;37.578;2022-11-11T09:48:51;68.38;64.72;81.12;;
75249;Laerm;63845;55.688;37.578;2022-11-11T09:51:29;68.94;65.81;83.47;;
75249;Laerm;63845;55.688;37.578;2022-11-11T09:54:00;68.29;64.22;77.79;;
75249;Laerm;63845;55.688;37.578;2022-11-11T09:56:28;68.40;64.41;78.00;;
75249;Laerm;63845;55.688;37.578;2022-11-11T09:59:13;68.32;64.20;82.33;;
75249;Laerm;63845;55.688;37.578;2022-11-11T10:01:44;68.39;63.58;85.20;;
75249;Laerm;63845;55.688;37.578;2022-11-11T10:04:33;67.85;64.66;74.84;;
75249;Laerm;63845;55.688;37.578;2022-11-11T10:07:06;68.33;64.93;87.87;;
75249;Laerm;63845;55.688;37.578;2022-11-11T10:09:46;68.78;64.86;80.17;;
75249;Laerm;63845;55.688;37.578;2022-11-11T10:12:18;68.23;65.26;76.83;;
75249;Laerm;63845;55.688;37.578;2022-11-11T10:14:46;67.55;64.17;72.23;;
75249;Laerm;63845;55.688;37.578;2022-11-11T10:20:02;68.13;64.29;72.17;;
75249;Laerm;63845;55.688;37.578;2022-11-11T10:22:39;68.19;64.91;71.93;;
75249;Laerm;63845;55.688;37.578;2022-11-11T10:27:40;69.54;65.77;79.49;;
75249;Laerm;63845;55.688;37.578;2022-11-11T10:32:44;67.86;63.87;73.33;;
75249;Laerm;63845;55.688;37.578;2022-11-11T10:35:19;68.95;64.68;80.69;;
75249;Laerm;63845;55.688;37.578;2022-11-11T10:37:47;68.34;64.86;75.00;;
75249;Laerm;63845;55.688;37.578;2022-11-11T10:40:20;68.03;64.90;77.39;;
75249;Laerm;63845;55.688;37.578;2022-11-11T10:42:48;68.43;64.36;74.51;;
75249;Laerm;63845;55.688;37.578;2022-11-11T10:48:15;68.73;65.11;75.41;;
75249;Laerm;63845;55.688;37.578;2022-11-11T10:50:49;68.65;65.16;76.43;;
75249;Laerm;63845;55.688;37.578;2022-11-11T10:56:04;69.15;65.39;82.56;;
75249;Laerm;63845;55.688;37.578;2022-11-11T10:58:40;69.32;65.47;78.85;;
75249;Laerm;63845;55.688;37.578;2022-11-11T11:01:11;68.64;64.83;72.71;;
75249;Laerm;63845;55.688;37.578;2022-11-11T11:04:03;69.83;65.28;81.55;;
75249;Laerm;63845;55.688;37.578;2022-11-11T11:06:35;69.05;64.11;85.10;;
75249;Laerm;63845;55.688;37.578;2022-11-11T11:12:13;69.90;64.37;89.44;;
75249;Laerm;63845;55.688;37.578;2022-11-11T11:14:43;69.21;64.35;80.01;;
75249;Laerm;63845;55.688;37.578;2022-11-11T11:17:16;68.05;64.51;74.47;;
75249;Laerm;63845;55.688;37.578;2022-11-11T11:20:31;69.94;64.45;76.49;;
75249;Laerm;63845;55.688;37.578;2022-11-11T11:22:49;68.71;64.80;74.81;;
75249;Laerm;63845;55.688;37.578;2022-11-11T11:25:15;70.21;65.01;84.85;;
75249;Laerm;63845;55.688;37.578;2022-11-11T11:27:43;69.80;65.43;79.44;;
75249;Laerm;63845;55.688;37.578;2022-11-11T11:30:14;68.53;64.31;74.96;;
75249;Laerm;63845;55.688;37.578;2022-11-11T11:32:40;70.92;66.10;78.28;;
75249;Laerm;63845;55.688;37.578;2022-11-11T11:35:35;69.25;64.84;78.16;;
75249;Laerm;63845;55.688;37.578;2022-11-11T11:38:02;70.93;65.26;83.83;;
75249;Laerm;63845;55.688;37.578;2022-11-11T11:40:44;69.37;65.20;86.39;;
75249;Laerm;63845;55.688;37.578;2022-11-11T11:45:57;69.86;65.01;81.07;;
75249;Laerm;63845;55.688;37.578;2022-11-11T11:50:55;68.95;64.32;77.76;;
75249;Laerm;63845;55.688;37.578;2022-11-11T11:53:46;69.37;66.10;76.14;;
75249;Laerm;63845;55.688;37.578;2022-11-11T11:56:22;69.90;67.05;75.61;;
75249;Laerm;63845;55.688;37.578;2022-11-11T11:59:05;70.00;66.75;76.95;;
75249;Laerm;63845;55.688;37.578;2022-11-11T12:07:20;70.25;66.43;80.18;;
75249;Laerm;63845;55.688;37.578;2022-11-11T12:13:00;69.92;67.02;76.26;;
75249;Laerm;63845;55.688;37.578;2022-11-11T12:15:35;70.94;66.76;81.24;;
75249;Laerm;63845;55.688;37.578;2022-11-11T12:20:43;71.60;66.35;91.64;;
75249;Laerm;63845;55.688;37.578;2022-11-11T12:26:14;70.04;66.40;80.95;;
75249;Laerm;63845;55.688;37.578;2022-11-11T12:37:33;69.49;66.58;73.97;;
75249;Laerm;63845;55.688;37.578;2022-11-11T12:43:04;70.76;66.89;79.36;;
75249;Laerm;63845;55.688;37.578;2022-11-11T12:45:51;69.74;66.62;77.69;;
75249;Laerm;63845;55.688;37.578;2022-11-11T12:53:41;69.61;66.46;79.42;;
75249;Laerm;63845;55.688;37.578;2022-11-11T12:59:26;69.44;65.72;84.48;;
75249;Laerm;63845;55.688;37.578;2022-11-11T13:10:42;69.39;65.72;76.13;;
75249;Laerm;63845;55.688;37.578;2022-11-11T13:13:40;69.29;65.59;78.67;;
75249;Laerm;63845;55.688;37.578;2022-11-11T13:16:08;69.23;65.09;73.67;;
75249;Laerm;63845;55.688;37.578;2022-11-11T13:21:35;68.72;65.69;74.50;;
75249;Laerm;63845;55.688;37.578;2022-11-11T13:24:10;69.05;66.35;71.71;;
75249;Laerm;63845;55.688;37.578;2022-11-11T13:26:44;69.06;66.24;73.29;;
75249;Laerm;63845;55.688;37.578;2022-11-11T13:29:44;69.08;65.51;73.01;;
75249;Laerm;63845;55.688;37.578;2022-11-11T13:32:15;69.22;66.02;74.19;;
75249;Laerm;63845;55.688;37.578;2022-11-11T13:34:44;69.32;66.48;76.72;;
75249;Laerm;63845;55.688;37.578;2022-11-11T13:37:24;68.74;65.68;73.71;;
75249;Laerm;63845;55.688;37.578;2022-11-11T13:39:58;69.03;65.13;78.49;;
75249;Laerm;63845;55.688;37.578;2022-11-11T13:42:27;69.54;66.34;94.75;;
75249;Laerm;63845;55.688;37.578;2022-11-11T13:44:58;69.00;66.39;75.96;;
75249;Laerm;63845;55.688;37.578;2022-11-11T13:47:39;69.07;66.09;78.73;;
75249;Laerm;63845;55.688;37.578;2022-11-11T13:50:37;68.93;65.36;83.60;;
75249;Laerm;63845;55.688;37.578;2022-11-11T13:53:05;69.16;65.48;74.69;;
75249;Laerm;63845;55.688;37.578;2022-11-11T13:55:37;69.36;65.98;79.53;;
75249;Laerm;63845;55.688;37.578;2022-11-11T13:58:06;69.83;66.52;75.23;;
75249;Laerm;63845;55.688;37.578;2022-11-11T14:00:42;69.73;66.80;76.30;;
75249;Laerm;63845;55.688;37.578;2022-11-11T14:05:42;69.43;66.15;74.94;;
75249;Laerm;63845;55.688;37.578;2022-11-11T14:08:08;70.63;66.10;84.76;;
75249;Laerm;63845;55.688;37.578;2022-11-11T14:15:51;69.42;66.43;73.99;;
75249;Laerm;63845;55.688;37.578;2022-11-11T14:20:48;69.52;66.18;73.01;;
75249;Laerm;63845;55.688;37.578;2022-11-11T14:23:31;69.47;66.17;77.60;;
75249;Laerm;63845;55.688;37.578;2022-11-11T14:29:13;69.66;66.37;74.93;;
75249;Laerm;63845;55.688;37.578;2022-11-11T14:34:27;69.58;66.49;74.27;;
75249;Laerm;63845;55.688;37.578;2022-11-11T14:37:37;70.11;65.56;81.89;;
75249;Laerm;63845;55.688;37.578;2022-11-11T14:40:10;70.23;66.75;82.65;;
75249;Laerm;63845;55.688;37.578;2022-11-11T14:45:07;69.69;65.73;75.04;;
75249;Laerm;63845;55.688;37.578;2022-11-11T14:47:50;70.06;66.25;84.69;;
75249;Laerm;63845;55.688;37.578;2022-11-11T14:53:07;70.03;66.41;74.94;;
75249;Laerm;63845;55.688;37.578;2022-11-11T14:55:38;70.17;67.00;74.74;;
75249;Laerm;63845;55.688;37.578;2022-11-11T15:00:48;70.47;67.63;75.72;;
75249;Laerm;63845;55.688;37.578;2022-11-11T15:03:36;69.72;66.80;76.69;;
75249;Laerm;63845;55.688;37.578;2022-11-11T15:06:23;69.11;66.01;77.92;;
75249;Laerm;63845;55.688;37.578;2022-11-11T15:09:16;70.31;66.43;84.21;;
75249;Laerm;63845;55.688;37.578;2022-11-11T15:12:40;70.80;65.99;84.56;;
75249;Laerm;63845;55.688;37.578;2022-11-11T15:30:51;69.37;65.82;86.07;;
75249;Laerm;63845;55.688;37.578;2022-11-11T15:36:20;70.34;67.87;80.59;;
75249;Laerm;63845;55.688;37.578;2022-11-11T15:38:51;70.43;67.70;75.16;;
75249;Laerm;63845;55.688;37.578;2022-11-11T15:41:22;70.09;67.44;81.65;;
75249;Laerm;63845;55.688;37.578;2022-11-11T15:43:49;70.04;65.94;80.70;;
75249;Laerm;63845;55.688;37.578;2022-11-11T15:46:26;68.86;64.58;81.66;;
75249;Laerm;63845;55.688;37.578;2022-11-11T15:48:53;67.56;63.98;74.37;;
75249;Laerm;63845;55.688;37.578;2022-11-11T15:53:47;67.76;64.47;72.21;;
75249;Laerm;63845;55.688;37.578;2022-11-11T15:56:32;67.64;63.92;80.07;;
75249;Laerm;63845;55.688;37.578;2022-11-11T15:59:14;68.73;64.73;79.13;;